Time;durP1;ratioP1;P1;durP2;ratioP2;P2;SDS_P1;SDS_P2;PMS_P1;PMS_P2;Temp;Humidity;BMP_temperature;BMP_pressure;BME280_temperature;BME280_humidity;BME280_pressure;Samples;Min_cycle;Max_cycle;Signal;HPM_P1;HPM_P2
2023/10/26 00:00:25;;;;;;;9.07;4.03;;;15.50;99.90;;;;;;4825041;29;20049;-73
2023/10/26 00:02:52;;;;;;;9.95;4.07;;;15.60;99.90;;;;;;4849116;29;20029;-73
2023/10/26 00:05:18;;;;;;;12.38;5.18;;;15.50;99.90;;;;;;4846079;29;20030;-76
2023/10/26 00:07:44;;;;;;;11.27;4.30;;;15.60;99.90;;;;;;4841577;29;20025;-76
2023/10/26 00:10:11;;;;;;;12.68;5.10;;;15.50;99.90;;;;;;4841144;29;20479;-75
2023/10/26 00:12:46;;;;;;;7.78;4.15;;;15.50;99.90;;;;;;4840284;29;20509;-74
2023/10/26 00:15:12;;;;;;;7.43;4.28;;;15.50;99.90;;;;;;4823327;29;20049;-75
2023/10/26 00:17:38;;;;;;;12.90;4.20;;;15.50;99.90;;;;;;4841339;29;20439;-74
2023/10/26 00:20:05;;;;;;;10.73;4.65;;;15.50;99.90;;;;;;4841291;29;20026;-75
2023/10/26 00:22:31;;;;;;;10.18;4.40;;;15.60;99.90;;;;;;4841040;29;20079;-75
2023/10/26 00:24:57;;;;;;;11.07;4.82;;;15.60;99.90;;;;;;4841360;29;20041;-75
2023/10/26 00:27:23;;;;;;;11.65;5.57;;;15.60;99.90;;;;;;4841185;29;20026;-74
2023/10/26 00:29:49;;;;;;;8.65;3.92;;;15.60;99.90;;;;;;4841058;29;20038;-75
2023/10/26 00:32:15;;;;;;;14.85;5.43;;;15.70;99.90;;;;;;4840911;29;20033;-75
2023/10/26 00:34:42;;;;;;;14.25;7.65;;;15.60;99.90;;;;;;4841201;29;20510;-74
2023/10/26 00:37:08;;;;;;;16.83;7.53;;;15.70;99.90;;;;;;4837277;29;20038;-75
2023/10/26 00:39:34;;;;;;;17.40;8.18;;;15.70;99.90;;;;;;4824828;29;20141;-74
2023/10/26 00:42:01;;;;;;;15.20;8.75;;;15.70;99.90;;;;;;4844024;29;20382;-77
2023/10/26 00:44:27;;;;;;;18.38;8.18;;;15.70;99.90;;;;;;4849920;29;20068;-76
2023/10/26 00:46:54;;;;;;;16.70;7.93;;;15.70;99.90;;;;;;4844002;29;20057;-77
2023/10/26 00:49:21;;;;;;;13.40;7.10;;;15.70;99.90;;;;;;4840772;29;20056;-76
2023/10/26 00:51:58;;;;;;;14.27;6.53;;;15.70;99.90;;;;;;4841239;29;20092;-74
2023/10/26 00:54:26;;;;;;;12.70;7.38;;;15.70;99.90;;;;;;4840965;29;20133;-77
2023/10/26 00:56:52;;;;;;;14.15;7.28;;;15.70;99.90;;;;;;4840955;29;20457;-73
2023/10/26 00:59:19;;;;;;;15.00;7.63;;;15.50;99.90;;;;;;4840690;29;20042;-74
2023/10/26 01:01:50;;;;;;;14.10;7.00;;;15.50;99.90;;;;;;4840987;29;20030;-74
2023/10/26 01:04:16;;;;;;;11.40;6.93;;;15.50;99.90;;;;;;4846748;29;20451;-74
2023/10/26 01:06:43;;;;;;;14.68;6.80;;;15.50;99.90;;;;;;4846909;29;20057;-74
2023/10/26 01:09:10;;;;;;;11.07;6.70;;;15.50;99.90;;;;;;4840715;29;20499;-74
2023/10/26 01:11:39;;;;;;;11.98;5.78;;;15.50;99.90;;;;;;4840607;29;20471;-75
2023/10/26 01:14:06;;;;;;;12.68;6.85;;;15.50;99.90;;;;;;4824216;29;20132;-75
2023/10/26 01:16:32;;;;;;;10.20;5.68;;;15.50;99.90;;;;;;4824505;29;20034;-75
2023/10/26 01:18:59;;;;;;;13.50;6.50;;;15.40;99.90;;;;;;4840582;29;20057;-74
2023/10/26 01:21:27;;;;;;;15.32;5.65;;;15.40;99.90;;;;;;4840960;29;20551;-74
2023/10/26 01:23:53;;;;;;;12.05;4.28;;;15.50;99.90;;;;;;4824234;29;20030;-74
2023/10/26 01:26:19;;;;;;;9.07;4.85;;;15.50;99.90;;;;;;4843248;29;20619;-74
2023/10/26 01:28:45;;;;;;;13.30;4.90;;;15.60;99.90;;;;;;4843944;29;20379;-73
2023/10/26 01:31:16;;;;;;;8.10;4.40;;;15.70;99.90;;;;;;4844013;29;20033;-74
2023/10/26 01:33:43;;;;;;;12.18;4.60;;;15.70;99.90;;;;;;4844130;29;20083;-75
2023/10/26 01:36:09;;;;;;;7.40;4.22;;;15.80;99.90;;;;;;4843965;29;20398;-77
2023/10/26 01:38:36;;;;;;;9.35;3.58;;;15.90;99.90;;;;;;4844212;29;20478;-75
2023/10/26 01:41:02;;;;;;;11.90;3.60;;;16.00;99.90;;;;;;4844929;29;20030;-74
2023/10/26 01:43:29;;;;;;;11.57;3.88;;;16.00;99.90;;;;;;4838363;29;20482;-75
2023/10/26 01:45:55;;;;;;;8.30;3.88;;;16.10;99.90;;;;;;4843627;29;20137;-75
2023/10/26 01:48:23;;;;;;;6.45;3.60;;;16.10;99.90;;;;;;4844066;29;20022;-75
2023/10/26 01:50:49;;;;;;;9.35;3.88;;;16.20;99.90;;;;;;4843571;29;20181;-74
2023/10/26 01:53:15;;;;;;;10.27;3.78;;;16.20;99.90;;;;;;4843705;29;20120;-75
2023/10/26 01:55:41;;;;;;;6.55;2.90;;;16.30;99.90;;;;;;4839178;29;20178;-74
2023/10/26 01:58:07;;;;;;;6.32;4.13;;;16.30;99.90;;;;;;4827280;29;20034;-74
2023/10/26 02:00:33;;;;;;;6.93;3.60;;;16.30;99.90;;;;;;4826984;29;20036;-74
2023/10/26 02:02:59;;;;;;;7.93;3.53;;;16.30;99.90;;;;;;4843402;29;20026;-75
2023/10/26 02:05:25;;;;;;;8.48;3.17;;;16.30;99.90;;;;;;4827099;29;20124;-74
2023/10/26 02:07:51;;;;;;;8.50;3.22;;;16.30;99.90;;;;;;4843296;29;20025;-76
2023/10/26 02:10:18;;;;;;;8.45;3.17;;;16.30;99.90;;;;;;4843318;29;20463;-76
2023/10/26 02:12:44;;;;;;;8.68;3.50;;;16.30;99.90;;;;;;4826652;29;20037;-76
2023/10/26 02:15:11;;;;;;;8.73;4.03;;;16.30;99.90;;;;;;4843109;29;20501;-75
2023/10/26 02:17:37;;;;;;;7.38;3.30;;;16.30;99.90;;;;;;4843034;29;20033;-75
2023/10/26 02:20:04;;;;;;;10.27;3.40;;;16.30;99.90;;;;;;4826708;29;20059;-75
2023/10/26 02:22:29;;;;;;;10.32;3.63;;;16.30;99.90;;;;;;4826422;29;20050;-75
2023/10/26 02:24:55;;;;;;;8.38;3.42;;;16.30;99.90;;;;;;4842712;29;20089;-75
2023/10/26 02:27:21;;;;;;;7.10;3.55;;;16.40;99.90;;;;;;4826736;29;20033;-75
2023/10/26 02:29:48;;;;;;;12.43;3.40;;;16.40;99.90;;;;;;4826192;29;20053;-75
2023/10/26 02:32:15;;;;;;;8.82;3.17;;;16.40;99.90;;;;;;4826551;29;20091;-77
2023/10/26 02:34:41;;;;;;;8.68;3.10;;;16.40;99.90;;;;;;4826327;29;20104;-74
2023/10/26 02:37:07;;;;;;;8.73;2.97;;;16.40;99.90;;;;;;4842168;29;20367;-75
2023/10/26 02:39:32;;;;;;;8.13;2.78;;;16.40;99.90;;;;;;4842608;29;20056;-74
2023/10/26 02:41:58;;;;;;;6.00;2.65;;;16.40;99.90;;;;;;4842742;29;20112;-74
2023/10/26 02:44:25;;;;;;;9.40;2.78;;;16.40;99.90;;;;;;4842528;29;20102;-77
2023/10/26 02:46:51;;;;;;;8.82;3.47;;;16.40;99.90;;;;;;4850887;29;20021;-78
2023/10/26 02:49:17;;;;;;;10.48;3.15;;;16.30;99.90;;;;;;4830126;29;20593;-76
2023/10/26 02:51:42;;;;;;;7.10;3.53;;;16.30;99.90;;;;;;4842622;29;20112;-76
2023/10/26 02:54:12;;;;;;;9.60;3.42;;;16.00;99.90;;;;;;4842382;29;20096;-74
2023/10/26 02:56:41;;;;;;;;;;;15.90;99.90;;;;;;4842764;29;20082;-74
2023/10/26 02:59:07;;;;;;;9.85;4.10;;;15.70;99.90;;;;;;4825581;29;20008;-76
2023/10/26 03:01:34;;;;;;;7.55;3.67;;;15.60;99.90;;;;;;4825634;29;20124;-74
2023/10/26 03:04:03;;;;;;;7.00;3.38;;;15.60;99.90;;;;;;4842348;29;20106;-74
2023/10/26 03:06:35;;;;;;;7.82;2.95;;;15.50;99.90;;;;;;4825959;29;20026;-74
2023/10/26 03:09:01;;;;;;;6.90;3.30;;;15.40;99.90;;;;;;4825614;29;20075;-74
2023/10/26 03:11:27;;;;;;;7.63;3.85;;;15.50;99.90;;;;;;4842365;29;20342;-75
2023/10/26 03:13:53;;;;;;;13.00;4.07;;;15.40;99.90;;;;;;4841132;29;20067;-74
2023/10/26 03:16:19;;;;;;;6.07;2.92;;;15.40;99.90;;;;;;4842194;29;20029;-76
2023/10/26 03:18:45;;;;;;;11.77;3.30;;;15.40;99.90;;;;;;4841694;29;20042;-75
2023/10/26 03:21:12;;;;;;;8.65;3.28;;;15.40;99.90;;;;;;4842085;29;20036;-74
2023/10/26 03:23:38;;;;;;;5.63;3.15;;;15.50;99.90;;;;;;4825299;29;20040;-75
2023/10/26 03:26:09;;;;;;;7.57;3.17;;;15.50;99.90;;;;;;4842122;29;20030;-74
2023/10/26 03:28:35;;;;;;;7.13;2.83;;;15.50;99.90;;;;;;4846362;29;20378;-75
2023/10/26 03:31:01;;;;;;;8.05;3.00;;;15.60;99.90;;;;;;4832209;29;20044;-75
2023/10/26 03:33:27;;;;;;;8.68;3.35;;;15.60;99.90;;;;;;4841927;29;20044;-73
2023/10/26 03:35:53;;;;;;;13.13;2.88;;;15.60;99.90;;;;;;4841699;29;20034;-74
2023/10/26 03:38:21;;;;;;;7.50;3.47;;;15.60;99.90;;;;;;4841718;29;20086;-74
2023/10/26 03:40:49;;;;;;;9.15;3.20;;;15.70;99.90;;;;;;4841344;29;20109;-75
2023/10/26 03:43:15;;;;;;;7.50;3.10;;;15.80;99.90;;;;;;4841976;29;20059;-75
2023/10/26 03:45:45;;;;;;;8.25;3.30;;;15.80;99.90;;;;;;4841585;29;20033;-74
2023/10/26 03:48:10;;;;;;;13.40;3.58;;;15.90;99.90;;;;;;4825162;29;20382;-74
2023/10/26 03:50:37;;;;;;;6.93;2.72;;;15.90;99.90;;;;;;4841307;29;20030;-76
2023/10/26 03:53:03;;;;;;;10.30;3.70;;;15.90;99.90;;;;;;4825247;29;20030;-76
2023/10/26 03:55:29;;;;;;;10.73;3.88;;;15.90;99.90;;;;;;4825163;29;20044;-75
2023/10/26 03:57:55;;;;;;;6.60;2.95;;;16.00;99.90;;;;;;4825014;29;20062;-74
2023/10/26 04:00:21;;;;;;;9.55;4.20;;;16.00;99.90;;;;;;4841489;29;20027;-75
2023/10/26 04:02:47;;;;;;;9.95;4.13;;;15.90;99.90;;;;;;4824693;29;20033;-74
2023/10/26 04:05:15;;;;;;;11.50;4.72;;;15.90;99.90;;;;;;4841549;29;20033;-75
2023/10/26 04:07:42;;;;;;;11.38;3.67;;;15.90;99.90;;;;;;4841525;29;20401;-73
2023/10/26 04:10:09;;;;;;;12.32;3.33;;;15.90;99.90;;;;;;4841448;29;20053;-74
2023/10/26 04:12:35;;;;;;;11.15;4.22;;;16.00;99.90;;;;;;4841602;29;20379;-74
2023/10/26 04:15:02;;;;;;;8.90;3.53;;;16.10;99.90;;;;;;4841576;29;20118;-73
2023/10/26 04:17:28;;;;;;;7.57;3.83;;;16.10;99.90;;;;;;4841280;29;20034;-73
2023/10/26 04:19:54;;;;;;;7.90;3.75;;;16.20;99.90;;;;;;4843739;29;20029;-75
2023/10/26 04:22:20;;;;;;;15.32;3.88;;;16.10;99.90;;;;;;4843679;29;20030;-74
2023/10/26 04:24:46;;;;;;;13.18;4.68;;;16.20;99.90;;;;;;4841082;29;20038;-74
2023/10/26 04:27:12;;;;;;;16.70;5.30;;;16.20;99.90;;;;;;4851916;29;20033;-74
2023/10/26 04:29:37;;;;;;;17.80;5.80;;;16.20;99.90;;;;;;4842819;29;20060;-75
2023/10/26 04:32:03;;;;;;;14.15;6.10;;;16.10;99.90;;;;;;4841175;29;20061;-74
2023/10/26 04:34:32;;;;;;;13.70;5.55;;;16.10;99.90;;;;;;4845086;29;20026;-74
2023/10/26 04:36:58;;;;;;;14.38;6.20;;;16.10;99.90;;;;;;4848893;29;20037;-74
2023/10/26 04:39:24;;;;;;;12.68;4.80;;;16.10;99.90;;;;;;4829132;29;20029;-74
2023/10/26 04:41:50;;;;;;;11.80;4.80;;;16.10;99.90;;;;;;4841251;29;20551;-74
2023/10/26 04:44:18;;;;;;;12.32;5.95;;;16.20;99.90;;;;;;4841210;29;20030;-73
2023/10/26 04:46:44;;;;;;;13.90;6.18;;;16.20;99.90;;;;;;4841129;29;20064;-75
2023/10/26 04:49:10;;;;;;;12.77;5.32;;;16.20;99.90;;;;;;4840826;29;20037;-74
2023/10/26 04:51:36;;;;;;;16.52;8.10;;;16.30;99.90;;;;;;4841055;29;20034;-74
2023/10/26 04:54:02;;;;;;;17.20;7.72;;;16.40;99.90;;;;;;4824414;29;20174;-76
2023/10/26 04:56:28;;;;;;;17.48;8.70;;;16.40;99.90;;;;;;4840858;29;20097;-74
2023/10/26 04:58:54;;;;;;;25.17;10.35;;;16.40;99.90;;;;;;4840993;29;20030;-74
2023/10/26 05:01:20;;;;;;;23.55;12.43;;;16.50;99.90;;;;;;4843502;29;20037;-74
2023/10/26 05:03:49;;;;;;;26.73;11.90;;;16.50;99.90;;;;;;4844688;29;20045;-74
2023/10/26 05:06:15;;;;;;;15.68;7.07;;;16.60;99.90;;;;;;4844549;29;20490;-75
2023/10/26 05:08:41;;;;;;;15.27;5.47;;;16.60;99.90;;;;;;4844087;29;20038;-73
2023/10/26 05:11:07;;;;;;;12.95;5.63;;;16.70;99.90;;;;;;4844482;29;20033;-75
2023/10/26 05:13:32;;;;;;;16.55;6.22;;;16.70;99.90;;;;;;4844164;29;20405;-75
2023/10/26 05:15:58;;;;;;;13.95;6.85;;;16.70;99.90;;;;;;4827694;29;20125;-75
2023/10/26 05:18:24;;;;;;;13.60;5.10;;;16.70;99.90;;;;;;4850215;29;20381;-74
2023/10/26 05:20:50;;;;;;;15.68;5.28;;;16.80;99.90;;;;;;4850192;29;20086;-74
2023/10/26 05:23:16;;;;;;;13.82;3.53;;;16.80;99.90;;;;;;4843805;29;20030;-75
2023/10/26 05:25:42;;;;;;;8.70;2.90;;;16.90;99.90;;;;;;4844313;29;20125;-74
2023/10/26 05:28:08;;;;;;;6.82;3.38;;;16.90;99.90;;;;;;4843677;29;20030;-75
2023/10/26 05:30:34;;;;;;;10.85;3.92;;;16.90;99.90;;;;;;4844538;29;20033;-75
2023/10/26 05:33:00;;;;;;;9.10;3.13;;;17.00;99.90;;;;;;4856005;29;20029;-74
2023/10/26 05:35:26;;;;;;;11.75;3.58;;;17.00;99.90;;;;;;4844110;29;20041;-74
2023/10/26 05:37:52;;;;;;;7.68;3.05;;;17.00;99.90;;;;;;4845547;29;20026;-76
2023/10/26 05:40:18;;;;;;;8.75;3.45;;;17.10;99.90;;;;;;4837964;29;20037;-74
2023/10/26 05:42:44;;;;;;;10.05;3.63;;;17.10;99.90;;;;;;4843700;29;20026;-74
2023/10/26 05:45:10;;;;;;;7.05;3.50;;;17.20;99.90;;;;;;4843623;29;20058;-74
2023/10/26 05:47:36;;;;;;;11.73;3.38;;;17.20;99.90;;;;;;4855922;29;20026;-75
2023/10/26 05:50:03;;;;;;;9.57;4.00;;;17.20;99.90;;;;;;4843605;29;20392;-74
2023/10/26 05:52:29;;;;;;;10.45;4.43;;;17.20;99.90;;;;;;4843639;29;20055;-75
2023/10/26 05:54:55;;;;;;;14.90;4.57;;;17.20;99.90;;;;;;4843703;29;20128;-74
2023/10/26 05:57:25;;;;;;;7.43;3.97;;;17.30;99.90;;;;;;4843775;29;20069;-75
2023/10/26 05:59:51;;;;;;;8.52;4.22;;;17.30;99.90;;;;;;4843527;29;20112;-74
2023/10/26 06:02:17;;;;;;;12.63;7.65;;;17.30;99.90;;;;;;4842714;29;20026;-74
2023/10/26 06:04:43;;;;;;;19.85;7.90;;;17.40;99.90;;;;;;4843395;29;20044;-73
2023/10/26 06:07:09;;;;;;;20.38;7.85;;;17.40;99.90;;;;;;4846194;29;20017;-75
2023/10/26 06:09:35;;;;;;;11.27;5.57;;;17.40;99.90;;;;;;4836038;29;20065;-74
2023/10/26 06:12:01;;;;;;;11.38;6.00;;;17.40;99.90;;;;;;4841593;29;20022;-75
2023/10/26 06:14:27;;;;;;;12.05;6.72;;;17.50;99.90;;;;;;4852137;29;20124;-74
2023/10/26 06:16:52;;;;;;;14.80;7.25;;;17.50;99.90;;;;;;4846293;29;20502;-74
2023/10/26 06:19:18;;;;;;;13.00;6.13;;;17.60;99.90;;;;;;4843222;29;20088;-75
2023/10/26 06:21:44;;;;;;;16.88;8.70;;;17.60;99.90;;;;;;4842935;29;20022;-74
2023/10/26 06:24:10;;;;;;;16.67;7.85;;;17.60;99.90;;;;;;4843216;29;20117;-77
2023/10/26 06:26:36;;;;;;;15.10;6.97;;;17.70;99.90;;;;;;4826274;29;20550;-74
2023/10/26 06:29:08;;;;;;;10.20;4.97;;;17.70;99.90;;;;;;4842852;29;20077;-74
2023/10/26 06:31:34;;;;;;;6.32;3.58;;;17.80;99.90;;;;;;4842825;29;20078;-74
2023/10/26 06:34:00;;;;;;;12.98;5.85;;;17.90;99.90;;;;;;4842725;29;20034;-74
2023/10/26 06:36:26;;;;;;;13.63;7.13;;;18.00;99.90;;;;;;4843026;29;20037;-74
2023/10/26 06:38:54;;;;;;;20.70;7.90;;;18.10;99.90;;;;;;4842877;29;20018;-74
2023/10/26 06:41:22;;;;;;;13.57;6.13;;;18.10;99.90;;;;;;4842663;29;20493;-75
2023/10/26 06:43:48;;;;;;;14.73;6.15;;;18.10;99.90;;;;;;4842674;29;20037;-74
2023/10/26 06:46:13;;;;;;;12.57;5.88;;;18.20;99.90;;;;;;4842498;29;20018;-74
2023/10/26 06:48:39;;;;;;;15.68;6.47;;;18.20;99.90;;;;;;4842223;29;20030;-73
2023/10/26 06:51:06;;;;;;;14.32;5.45;;;18.30;99.90;;;;;;4842388;29;20501;-73
2023/10/26 06:53:32;;;;;;;9.10;4.85;;;18.30;99.90;;;;;;4842554;29;20058;-73
2023/10/26 06:55:58;;;;;;;14.65;4.50;;;18.40;99.90;;;;;;4842299;29;20455;-73
2023/10/26 06:58:24;;;;;;;14.85;5.20;;;18.40;99.90;;;;;;4842402;29;20086;-73
2023/10/26 07:00:50;;;;;;;20.80;6.50;;;18.50;99.90;;;;;;4842149;29;20034;-75
2023/10/26 07:03:18;;;;;;;16.35;6.25;;;18.50;99.90;;;;;;4842502;29;20037;-73
2023/10/26 07:05:44;;;;;;;14.70;5.93;;;18.40;99.90;;;;;;4825874;29;20479;-75
2023/10/26 07:08:12;;;;;;;12.50;5.63;;;18.50;99.90;;;;;;4826192;29;20026;-77
2023/10/26 07:10:41;;;;;;;17.42;6.20;;;18.60;99.90;;;;;;4841935;29;20478;-75
2023/10/26 07:13:08;;;;;;;13.38;5.97;;;18.70;99.90;;;;;;4842251;29;20396;-76
2023/10/26 07:15:34;;;;;;;14.00;6.32;;;18.70;99.90;;;;;;4825986;29;20038;-78
2023/10/26 07:18:00;;;;;;;16.00;6.85;;;18.80;99.90;;;;;;4826135;29;20134;-77
2023/10/26 07:20:26;;;;;;;12.02;4.97;;;18.90;99.90;;;;;;4841885;29;20101;-78
2023/10/26 07:22:52;;;;;;;14.60;6.75;;;19.00;99.90;;;;;;4851988;29;20033;-77
2023/10/26 07:25:18;;;;;;;14.68;4.68;;;19.10;99.90;;;;;;4843784;29;20030;-76
2023/10/26 07:27:44;;;;;;;10.82;4.60;;;19.30;99.90;;;;;;4825573;29;20036;-76
2023/10/26 07:30:11;;;;;;;10.73;5.18;;;19.50;99.90;;;;;;4841896;29;20038;-78
2023/10/26 07:32:37;;;;;;;16.38;5.68;;;19.60;99.90;;;;;;4841909;29;20109;-77
2023/10/26 07:35:03;;;;;;;11.10;4.72;;;19.80;99.90;;;;;;4841615;29;20534;-74
2023/10/26 07:37:32;;;;;;;8.63;4.13;;;20.00;99.90;;;;;;4841724;29;20368;-73
2023/10/26 07:39:58;;;;;;;9.95;3.72;;;20.10;99.90;;;;;;4841598;29;20491;-74
2023/10/26 07:42:24;;;;;;;8.27;3.55;;;20.20;99.90;;;;;;4841960;29;20037;-74
2023/10/26 07:44:53;;;;;;;15.23;4.38;;;20.50;98.70;;;;;;4825188;29;20120;-76
2023/10/26 07:47:19;;;;;;;11.40;4.20;;;20.70;98.70;;;;;;4841742;29;20044;-75
2023/10/26 07:49:45;;;;;;;9.07;3.72;;;20.80;98.10;;;;;;4841239;29;20112;-74
2023/10/26 07:52:11;;;;;;;14.13;4.47;;;20.90;97.50;;;;;;4841764;29;20095;-73
2023/10/26 07:54:37;;;;;;;10.82;4.72;;;21.20;97.30;;;;;;4840963;29;20038;-73
2023/10/26 07:57:03;;;;;;;8.38;3.50;;;21.40;97.10;;;;;;4825197;29;20062;-75
2023/10/26 07:59:30;;;;;;;8.05;2.92;;;21.60;99.90;;;;;;4819561;29;20481;-74
2023/10/26 08:01:59;;;;;;;10.75;2.50;;;22.10;97.30;;;;;;4847101;29;20022;-74
2023/10/26 08:04:27;;;;;;;6.82;2.50;;;21.70;97.30;;;;;;4841622;29;20037;-74
2023/10/26 08:06:53;;;;;;;8.05;2.47;;;21.80;94.00;;;;;;4841276;29;20030;-75
2023/10/26 08:09:19;;;;;;;7.47;2.75;;;21.80;93.70;;;;;;4841158;29;20046;-76
2023/10/26 08:11:45;;;;;;;7.40;3.55;;;21.90;93.30;;;;;;4840698;29;20050;-75
2023/10/26 08:14:11;;;;;;;6.07;2.55;;;22.00;93.50;;;;;;4841493;29;20109;-76
2023/10/26 08:16:38;;;;;;;20.33;2.65;;;22.00;93.20;;;;;;4841135;29;20075;-75
2023/10/26 08:19:04;;;;;;;10.23;3.10;;;22.10;93.00;;;;;;4840999;29;20103;-74
2023/10/26 08:21:33;;;;;;;4.25;2.33;;;;;;;;;;4841248;29;20030;-74
2023/10/26 08:23:59;;;;;;;8.02;2.55;;;22.30;99.90;;;;;;4840909;29;20062;-74
2023/10/26 08:26:25;;;;;;;8.15;2.58;;;22.30;92.50;;;;;;4824974;29;20053;-76
2023/10/26 08:28:51;;;;;;;18.40;8.32;;;;;;;;;;4840996;29;20549;-74
2023/10/26 08:31:17;;;;;;;26.30;12.95;;;22.50;92.00;;;;;;4841173;29;20033;-73
2023/10/26 08:33:43;;;;;;;19.52;10.00;;;22.60;92.80;;;;;;4840939;29;20562;-76
2023/10/26 08:36:08;;;;;;;22.13;8.93;;;22.40;99.90;;;;;;4843434;29;20061;-74
2023/10/26 08:38:35;;;;;;;14.50;5.22;;;;;;;;;;4845033;29;20049;-77
2023/10/26 08:41:01;;;;;;;14.90;5.88;;;23.00;95.90;;;;;;4828748;29;20158;-74
2023/10/26 08:43:28;;;;;;;9.68;3.53;;;23.20;92.70;;;;;;4844705;29;20064;-75
2023/10/26 08:45:58;;;;;;;7.47;3.40;;;23.30;92.90;;;;;;4844866;29;20048;-75
2023/10/26 08:48:25;;;;;;;8.57;3.55;;;23.30;92.80;;;;;;4844497;29;20167;-75
2023/10/26 08:50:51;;;;;;;4.65;2.58;;;23.30;92.90;;;;;;4844412;29;20037;-74
2023/10/26 08:53:19;;;;;;;18.75;4.82;;;23.10;91.70;;;;;;4845045;29;20030;-75
2023/10/26 08:55:52;;;;;;;5.15;2.10;;;22.80;92.80;;;;;;4844266;29;20100;-75
2023/10/26 08:58:20;;;;;;;4.80;1.40;;;22.60;91.90;;;;;;4844907;29;20042;-76
2023/10/26 09:00:46;;;;;;;4.25;1.75;;;22.20;92.60;;;;;;4856862;29;20082;-75
2023/10/26 09:03:12;;;;;;;6.30;1.88;;;21.80;94.40;;;;;;4844749;29;20045;-77
2023/10/26 09:05:54;;;;;;;9.02;2.40;;;21.50;95.20;;;;;;4856342;29;20100;-75
2023/10/26 09:08:22;;;;;;;6.32;2.25;;;21.40;96.40;;;;;;4844396;29;20065;-76
2023/10/26 09:10:48;;;;;;;3.75;1.80;;;21.20;97.80;;;;;;4844133;29;20033;-76
2023/10/26 09:13:23;;;;;;;4.90;2.03;;;21.10;99.40;;;;;;4844357;29;20034;-76
2023/10/26 09:15:50;;;;;;;3.63;1.90;;;21.20;99.90;;;;;;4828178;29;20049;-75
2023/10/26 09:18:17;;;;;;;5.55;2.13;;;21.40;99.90;;;;;;4844185;29;20367;-75
2023/10/26 09:20:59;;;;;;;6.70;1.88;;;21.40;99.90;;;;;;4844125;29;20447;-75
2023/10/26 09:23:28;;;;;;;;;;;21.30;99.90;;;;;;4844902;29;20046;-76
2023/10/26 09:26:04;;;;;;;3.95;2.08;;;21.40;99.90;;;;;;4844530;29;19912;-76
2023/10/26 09:28:49;;;;;;;7.22;2.35;;;21.40;99.90;;;;;;4844229;29;20037;-76
2023/10/26 09:31:15;;;;;;;9.27;2.70;;;21.50;99.90;;;;;;4844007;29;20087;-76
2023/10/26 09:33:41;;;;;;;7.28;2.70;;;21.60;99.90;;;;;;4843848;29;20026;-76
2023/10/26 09:36:12;;;;;;;7.20;2.72;;;21.60;99.90;;;;;;4827400;29;20136;-75
2023/10/26 09:38:41;;;;;;;7.47;2.67;;;21.70;99.90;;;;;;4844173;29;20117;-73
2023/10/26 09:41:10;;;;;;;8.63;3.00;;;21.90;99.90;;;;;;4843820;29;20065;-73
2023/10/26 09:43:42;;;;;;;6.30;1.75;;;22.00;99.90;;;;;;4844106;29;20069;-75
2023/10/26 09:46:13;;;;;;;4.68;2.00;;;21.90;99.90;;;;;;4843473;29;20382;-75
2023/10/26 09:48:40;;;;;;;5.53;2.30;;;22.00;99.90;;;;;;4843456;29;20064;-76
2023/10/26 09:51:06;;;;;;;7.53;2.45;;;22.00;99.90;;;;;;4843441;29;20486;-75
2023/10/26 09:53:38;;;;;;;8.55;2.72;;;22.00;99.90;;;;;;4843690;29;20027;-75
2023/10/26 09:56:05;;;;;;;7.93;2.45;;;22.00;99.80;;;;;;4843429;29;20037;-75
2023/10/26 09:58:43;;;;;;;5.55;2.58;;;22.00;99.90;;;;;;4843598;29;20030;-75
2023/10/26 10:01:39;;;;;;;5.43;2.42;;;22.00;99.10;;;;;;4831802;29;20045;-74
2023/10/26 10:04:18;;;;;;;9.35;3.75;;;22.10;98.50;;;;;;4843471;29;20042;-75
2023/10/26 10:06:54;;;;;;;8.18;2.60;;;22.10;99.00;;;;;;4843545;29;20030;-77
2023/10/26 10:09:25;;;;;;;6.22;2.90;;;22.20;98.40;;;;;;4832370;29;20056;-77
2023/10/26 10:12:11;;;;;;;7.68;3.22;;;22.30;98.00;;;;;;4842978;29;20099;-75
2023/10/26 10:14:50;;;;;;;10.30;4.05;;;22.30;97.90;;;;;;4843369;29;20046;-75
2023/10/26 10:17:18;;;;;;;6.15;2.92;;;22.30;98.00;;;;;;4843308;29;20037;-75
2023/10/26 10:20:07;;;;;;;7.25;3.13;;;22.50;97.60;;;;;;4843216;29;20037;-75
2023/10/26 10:22:39;;;;;;;5.47;2.65;;;22.50;97.90;;;;;;4833726;29;20130;-75
2023/10/26 10:25:11;;;;;;;5.45;2.58;;;22.60;97.60;;;;;;4826695;29;20038;-76
2023/10/26 10:27:37;;;;;;;;;;;22.70;97.40;;;;;;4853231;29;20030;-76
2023/10/26 10:30:08;;;;;;;7.45;2.60;;;22.80;97.70;;;;;;4813423;29;19912;-76
2023/10/26 10:32:43;;;;;;;3.97;2.35;;;23.00;98.30;;;;;;4842988;29;20502;-75
2023/10/26 10:35:22;;;;;;;6.50;2.30;;;23.00;98.20;;;;;;4842478;29;20054;-75
2023/10/26 10:38:16;;;;;;;5.07;2.15;;;23.10;97.90;;;;;;4842800;29;20049;-76
2023/10/26 10:41:01;;;;;;;5.40;2.55;;;23.10;97.40;;;;;;4843104;29;20113;-76
2023/10/26 10:43:43;;;;;;;5.50;2.35;;;;;;;;;;4843017;29;20037;-74
2023/10/26 10:46:20;;;;;;;8.07;2.53;;;23.40;99.90;;;;;;4842718;29;20034;-75
2023/10/26 10:48:57;;;;;;;8.93;2.70;;;;;;;;;;4842840;29;20030;-76
2023/10/26 10:51:27;;;;;;;9.00;2.75;;;;;;;;;;4842770;29;20037;-75
2023/10/26 10:53:56;;;;;;;5.60;2.65;;;23.60;99.90;;;;;;4842524;29;20113;-76
2023/10/26 10:56:26;;;;;;;10.43;2.70;;;23.60;95.10;;;;;;4842760;29;20046;-76
2023/10/26 10:58:56;;;;;;;4.70;2.47;;;23.70;99.90;;;;;;4841788;29;20026;-76
2023/10/26 11:01:23;;;;;;;6.32;2.35;;;23.70;92.60;;;;;;4842712;29;20529;-76
2023/10/26 11:03:49;;;;;;;5.28;2.13;;;23.70;93.10;;;;;;4842005;29;20022;-76
2023/10/26 11:06:17;;;;;;;5.97;2.22;;;23.60;92.30;;;;;;4825572;29;20406;-76
2023/10/26 11:08:45;;;;;;;6.97;2.10;;;23.60;92.20;;;;;;4841349;29;20037;-76
2023/10/26 11:11:30;;;;;;;7.97;2.42;;;23.60;91.90;;;;;;4842354;29;20038;-77
2023/10/26 11:14:10;;;;;;;4.95;2.72;;;23.70;91.80;;;;;;4825983;29;20117;-76
2023/10/26 11:16:38;;;;;;;5.80;2.78;;;23.80;91.70;;;;;;4837929;29;20041;-74
2023/10/26 11:19:04;;;;;;;7.53;2.58;;;24.00;99.90;;;;;;4841948;29;20030;-76
2023/10/26 11:21:30;;;;;;;4.78;2.00;;;24.00;99.90;;;;;;4842094;29;20479;-76
2023/10/26 11:23:56;;;;;;;6.57;2.30;;;24.00;90.20;;;;;;4841950;29;20022;-75
2023/10/26 11:26:22;;;;;;;7.05;2.85;;;24.10;90.20;;;;;;4842168;29;20360;-76
2023/10/26 11:28:47;;;;;;;5.50;2.58;;;24.00;89.10;;;;;;4841889;29;20022;-76
2023/10/26 11:31:13;;;;;;;4.78;2.08;;;24.00;96.10;;;;;;4841954;29;20488;-75
2023/10/26 11:33:39;;;;;;;6.82;2.75;;;24.20;89.60;;;;;;4841918;29;20109;-76
2023/10/26 11:36:09;;;;;;;4.38;2.20;;;24.20;88.80;;;;;;4854049;29;20048;-76
2023/10/26 11:38:44;;;;;;;7.20;2.55;;;24.20;87.40;;;;;;4841959;29;20055;-75
2023/10/26 11:41:10;;;;;;;6.45;2.10;;;24.20;88.30;;;;;;4825551;29;20038;-75
2023/10/26 11:43:38;;;;;;;4.50;2.03;;;24.30;87.30;;;;;;4850273;29;20034;-76
2023/10/26 11:46:12;;;;;;;7.18;2.25;;;24.30;86.60;;;;;;4845261;29;20463;-76
2023/10/26 11:48:38;;;;;;;4.18;2.15;;;24.30;85.80;;;;;;4825482;29;20509;-75
2023/10/26 11:51:06;;;;;;;9.02;2.00;;;24.30;84.90;;;;;;4841574;29;20101;-76
2023/10/26 11:53:32;;;;;;;6.70;2.10;;;24.30;85.70;;;;;;4841410;29;20075;-77
2023/10/26 11:55:59;;;;;;;9.77;2.72;;;24.70;95.40;;;;;;4841409;29;20121;-76
2023/10/26 11:58:25;;;;;;;6.65;2.75;;;;;;;;;;4841533;29;20044;-75
2023/10/26 12:00:51;;;;;;;6.50;2.13;;;24.50;83.90;;;;;;4841415;29;20053;-75
2023/10/26 12:03:17;;;;;;;4.03;2.53;;;24.50;84.10;;;;;;4841660;29;20467;-76
2023/10/26 12:05:43;;;;;;;4.93;2.35;;;;;;;;;;4841625;29;20022;-75
2023/10/26 12:08:09;;;;;;;7.80;2.30;;;24.70;84.10;;;;;;4825242;29;20432;-75
2023/10/26 12:10:35;;;;;;;5.10;2.58;;;;;;;;;;4841342;29;20137;-76
2023/10/26 12:13:03;;;;;;;6.00;2.67;;;25.00;83.90;;;;;;4841613;29;20395;-76
2023/10/26 12:15:30;;;;;;;5.82;2.00;;;24.90;82.90;;;;;;4845408;29;20037;-76
2023/10/26 12:17:55;;;;;;;7.47;2.75;;;24.90;82.80;;;;;;4860156;29;20394;-76
2023/10/26 12:20:21;;;;;;;5.32;2.30;;;24.80;81.50;;;;;;4842324;29;20030;-76
2023/10/26 12:22:48;;;;;;;6.70;2.22;;;24.80;83.10;;;;;;4841425;29;20041;-77
2023/10/26 12:25:14;;;;;;;7.97;2.08;;;24.80;83.90;;;;;;4840826;29;20084;-77
2023/10/26 12:27:40;;;;;;;4.00;1.63;;;24.60;83.10;;;;;;4841323;29;20061;-77
2023/10/26 12:30:14;;;;;;;5.60;2.13;;;24.50;83.60;;;;;;4840697;29;20052;-77
2023/10/26 12:32:41;;;;;;;5.18;2.25;;;24.50;82.60;;;;;;4825215;29;20444;-76
2023/10/26 12:35:14;;;;;;;8.45;3.60;;;24.50;83.50;;;;;;4846010;29;20110;-76
2023/10/26 12:37:42;;;;;;;9.50;3.38;;;24.30;85.50;;;;;;4830588;29;20395;-76
2023/10/26 12:40:08;;;;;;;6.68;3.55;;;24.30;85.50;;;;;;4841296;29;20091;-76
2023/10/26 12:42:35;;;;;;;7.90;3.17;;;24.30;86.50;;;;;;4841076;29;20030;-76
2023/10/26 12:45:01;;;;;;;7.68;3.30;;;24.20;86.20;;;;;;4841083;29;20086;-76
2023/10/26 12:47:32;;;;;;;8.90;3.40;;;24.10;88.10;;;;;;4840758;29;20037;-77